sensor_id;sensor_type;location;lat;lon;timestamp;P1;durP1;ratioP1;P2;durP2;ratioP2
13114;SDS011;6623;52.120;8.660;2022-07-06T00:02:02;2.67;;;1.17;;
13114;SDS011;6623;52.120;8.660;2022-07-06T00:04:28;6.83;;;1.00;;
13114;SDS011;6623;52.120;8.660;2022-07-06T00:06:55;1.57;;;1.10;;
13114;SDS011;6623;52.120;8.660;2022-07-06T00:09:22;2.77;;;1.00;;
13114;SDS011;6623;52.120;8.660;2022-07-06T00:11:48;2.63;;;0.73;;
13114;SDS011;6623;52.120;8.660;2022-07-06T00:14:14;3.00;;;0.93;;
13114;SDS011;6623;52.120;8.660;2022-07-06T00:16:40;2.63;;;0.80;;
13114;SDS011;6623;52.120;8.660;2022-07-06T00:19:06;4.20;;;1.23;;
13114;SDS011;6623;52.120;8.660;2022-07-06T00:21:32;2.73;;;1.00;;
13114;SDS011;6623;52.120;8.660;2022-07-06T00:23:58;4.40;;;1.20;;
13114;SDS011;6623;52.120;8.660;2022-07-06T00:26:24;2.77;;;1.07;;
13114;SDS011;6623;52.120;8.660;2022-07-06T00:28:50;3.33;;;1.30;;
13114;SDS011;6623;52.120;8.660;2022-07-06T00:31:17;3.77;;;1.20;;
13114;SDS011;6623;52.120;8.660;2022-07-06T00:33:43;6.97;;;1.30;;
13114;SDS011;6623;52.120;8.660;2022-07-06T00:36:09;2.20;;;1.00;;
13114;SDS011;6623;52.120;8.660;2022-07-06T00:38:35;3.93;;;1.10;;
13114;SDS011;6623;52.120;8.660;2022-07-06T00:41:01;4.00;;;1.07;;
13114;SDS011;6623;52.120;8.660;2022-07-06T00:43:27;3.00;;;1.20;;
13114;SDS011;6623;52.120;8.660;2022-07-06T00:45:58;6.77;;;1.17;;
13114;SDS011;6623;52.120;8.660;2022-07-06T00:48:27;4.03;;;1.03;;
13114;SDS011;6623;52.120;8.660;2022-07-06T00:50:58;6.13;;;1.47;;
13114;SDS011;6623;52.120;8.660;2022-07-06T00:53:24;2.50;;;1.00;;
13114;SDS011;6623;52.120;8.660;2022-07-06T00:55:50;3.07;;;1.00;;
13114;SDS011;6623;52.120;8.660;2022-07-06T00:58:16;2.43;;;1.20;;
13114;SDS011;6623;52.120;8.660;2022-07-06T01:00:42;3.87;;;1.30;;
13114;SDS011;6623;52.120;8.660;2022-07-06T01:03:09;5.37;;;1.20;;
13114;SDS011;6623;52.120;8.660;2022-07-06T01:05:35;1.87;;;1.20;;
13114;SDS011;6623;52.120;8.660;2022-07-06T01:08:04;2.07;;;1.13;;
13114;SDS011;6623;52.120;8.660;2022-07-06T01:10:30;2.83;;;1.03;;
13114;SDS011;6623;52.120;8.660;2022-07-06T01:12:56;4.70;;;1.13;;
13114;SDS011;6623;52.120;8.660;2022-07-06T01:15:23;3.50;;;1.00;;
13114;SDS011;6623;52.120;8.660;2022-07-06T01:17:53;1.37;;;0.97;;
13114;SDS011;6623;52.120;8.660;2022-07-06T01:20:19;1.77;;;0.93;;
13114;SDS011;6623;52.120;8.660;2022-07-06T01:22:46;5.40;;;1.67;;
13114;SDS011;6623;52.120;8.660;2022-07-06T01:25:12;1.60;;;1.00;;
13114;SDS011;6623;52.120;8.660;2022-07-06T01:27:39;3.77;;;1.30;;
13114;SDS011;6623;52.120;8.660;2022-07-06T01:30:06;3.57;;;1.30;;
13114;SDS011;6623;52.120;8.660;2022-07-06T01:32:32;2.93;;;1.27;;
13114;SDS011;6623;52.120;8.660;2022-07-06T01:34:59;2.10;;;1.10;;
13114;SDS011;6623;52.120;8.660;2022-07-06T01:37:25;3.27;;;1.20;;
13114;SDS011;6623;52.120;8.660;2022-07-06T01:39:51;3.87;;;1.60;;
13114;SDS011;6623;52.120;8.660;2022-07-06T01:42:16;5.20;;;1.23;;
13114;SDS011;6623;52.120;8.660;2022-07-06T01:44:43;3.83;;;1.40;;
13114;SDS011;6623;52.120;8.660;2022-07-06T01:47:09;4.60;;;1.43;;
13114;SDS011;6623;52.120;8.660;2022-07-06T01:49:35;2.77;;;1.30;;
13114;SDS011;6623;52.120;8.660;2022-07-06T01:52:01;3.40;;;1.13;;
13114;SDS011;6623;52.120;8.660;2022-07-06T01:54:28;3.13;;;1.20;;
13114;SDS011;6623;52.120;8.660;2022-07-06T01:56:54;5.13;;;1.53;;
13114;SDS011;6623;52.120;8.660;2022-07-06T01:59:20;4.17;;;1.20;;
13114;SDS011;6623;52.120;8.660;2022-07-06T02:01:46;2.87;;;1.10;;
13114;SDS011;6623;52.120;8.660;2022-07-06T02:04:12;4.13;;;1.10;;
13114;SDS011;6623;52.120;8.660;2022-07-06T02:06:38;5.13;;;1.20;;
13114;SDS011;6623;52.120;8.660;2022-07-06T02:09:04;5.83;;;1.30;;
13114;SDS011;6623;52.120;8.660;2022-07-06T02:11:30;3.90;;;1.17;;
13114;SDS011;6623;52.120;8.660;2022-07-06T02:13:56;2.80;;;1.47;;
13114;SDS011;6623;52.120;8.660;2022-07-06T02:16:24;2.57;;;1.50;;
13114;SDS011;6623;52.120;8.660;2022-07-06T02:18:53;3.90;;;1.50;;
13114;SDS011;6623;52.120;8.660;2022-07-06T02:21:22;3.73;;;1.40;;
13114;SDS011;6623;52.120;8.660;2022-07-06T02:23:51;1.43;;;1.20;;
13114;SDS011;6623;52.120;8.660;2022-07-06T02:26:17;4.40;;;1.30;;
13114;SDS011;6623;52.120;8.660;2022-07-06T02:28:43;2.73;;;1.30;;
13114;SDS011;6623;52.120;8.660;2022-07-06T02:31:11;2.70;;;1.27;;
13114;SDS011;6623;52.120;8.660;2022-07-06T02:33:38;3.67;;;1.50;;
13114;SDS011;6623;52.120;8.660;2022-07-06T02:36:09;5.83;;;1.37;;
13114;SDS011;6623;52.120;8.660;2022-07-06T02:38:35;4.10;;;1.60;;
13114;SDS011;6623;52.120;8.660;2022-07-06T02:41:02;2.77;;;1.40;;
13114;SDS011;6623;52.120;8.660;2022-07-06T02:43:28;3.23;;;1.70;;
13114;SDS011;6623;52.120;8.660;2022-07-06T02:45:54;4.87;;;1.50;;
13114;SDS011;6623;52.120;8.660;2022-07-06T02:48:20;2.07;;;1.03;;
13114;SDS011;6623;52.120;8.660;2022-07-06T02:50:46;5.80;;;1.67;;
13114;SDS011;6623;52.120;8.660;2022-07-06T02:53:12;1.67;;;1.30;;
13114;SDS011;6623;52.120;8.660;2022-07-06T02:55:38;5.53;;;1.70;;
13114;SDS011;6623;52.120;8.660;2022-07-06T02:58:04;3.37;;;1.67;;
13114;SDS011;6623;52.120;8.660;2022-07-06T03:00:30;3.13;;;1.50;;
13114;SDS011;6623;52.120;8.660;2022-07-06T03:02:56;3.20;;;1.10;;
13114;SDS011;6623;52.120;8.660;2022-07-06T03:05:22;4.00;;;1.80;;
13114;SDS011;6623;52.120;8.660;2022-07-06T03:07:48;2.43;;;1.30;;
13114;SDS011;6623;52.120;8.660;2022-07-06T03:10:14;1.90;;;1.23;;
13114;SDS011;6623;52.120;8.660;2022-07-06T03:12:40;2.17;;;1.30;;
13114;SDS011;6623;52.120;8.660;2022-07-06T03:15:06;4.67;;;1.40;;
13114;SDS011;6623;52.120;8.660;2022-07-06T03:17:34;2.63;;;1.10;;
13114;SDS011;6623;52.120;8.660;2022-07-06T03:20:00;2.20;;;1.20;;
13114;SDS011;6623;52.120;8.660;2022-07-06T03:22:26;3.60;;;1.53;;
13114;SDS011;6623;52.120;8.660;2022-07-06T03:24:52;2.53;;;1.20;;
13114;SDS011;6623;52.120;8.660;2022-07-06T03:27:18;3.83;;;1.60;;
13114;SDS011;6623;52.120;8.660;2022-07-06T03:29:47;4.40;;;1.30;;
13114;SDS011;6623;52.120;8.660;2022-07-06T03:32:13;2.83;;;1.30;;
13114;SDS011;6623;52.120;8.660;2022-07-06T03:34:39;4.93;;;1.60;;
13114;SDS011;6623;52.120;8.660;2022-07-06T03:37:05;2.77;;;1.33;;
13114;SDS011;6623;52.120;8.660;2022-07-06T03:39:31;2.80;;;1.50;;
13114;SDS011;6623;52.120;8.660;2022-07-06T03:42:00;5.87;;;1.40;;
13114;SDS011;6623;52.120;8.660;2022-07-06T03:44:29;1.53;;;1.17;;
13114;SDS011;6623;52.120;8.660;2022-07-06T03:46:55;2.17;;;1.00;;
13114;SDS011;6623;52.120;8.660;2022-07-06T03:49:21;3.83;;;1.43;;
13114;SDS011;6623;52.120;8.660;2022-07-06T03:51:52;3.10;;;1.30;;
13114;SDS011;6623;52.120;8.660;2022-07-06T03:54:19;2.13;;;1.50;;
13114;SDS011;6623;52.120;8.660;2022-07-06T03:56:45;2.13;;;1.30;;
13114;SDS011;6623;52.120;8.660;2022-07-06T03:59:14;2.70;;;1.47;;
13114;SDS011;6623;52.120;8.660;2022-07-06T04:01:40;4.53;;;1.27;;
13114;SDS011;6623;52.120;8.660;2022-07-06T04:04:06;4.60;;;1.50;;
13114;SDS011;6623;52.120;8.660;2022-07-06T04:06:32;3.37;;;1.37;;
13114;SDS011;6623;52.120;8.660;2022-07-06T04:08:59;4.00;;;1.63;;
13114;SDS011;6623;52.120;8.660;2022-07-06T04:11:25;4.53;;;1.37;;
13114;SDS011;6623;52.120;8.660;2022-07-06T04:13:51;2.40;;;1.20;;
13114;SDS011;6623;52.120;8.660;2022-07-06T04:16:19;3.43;;;1.43;;
13114;SDS011;6623;52.120;8.660;2022-07-06T04:18:45;7.03;;;1.40;;
13114;SDS011;6623;52.120;8.660;2022-07-06T04:21:11;4.03;;;1.40;;
13114;SDS011;6623;52.120;8.660;2022-07-06T04:23:37;4.00;;;1.50;;
13114;SDS011;6623;52.120;8.660;2022-07-06T04:26:03;3.10;;;1.40;;
13114;SDS011;6623;52.120;8.660;2022-07-06T04:28:29;6.37;;;1.50;;
13114;SDS011;6623;52.120;8.660;2022-07-06T04:30:56;4.93;;;1.43;;
13114;SDS011;6623;52.120;8.660;2022-07-06T04:33:22;4.53;;;1.20;;
13114;SDS011;6623;52.120;8.660;2022-07-06T04:35:48;1.80;;;1.10;;
13114;SDS011;6623;52.120;8.660;2022-07-06T04:38:14;3.77;;;1.40;;
13114;SDS011;6623;52.120;8.660;2022-07-06T04:40:40;3.97;;;1.40;;
13114;SDS011;6623;52.120;8.660;2022-07-06T04:43:06;2.20;;;1.30;;
13114;SDS011;6623;52.120;8.660;2022-07-06T04:45:34;1.87;;;1.03;;
13114;SDS011;6623;52.120;8.660;2022-07-06T04:48:03;5.93;;;1.10;;
13114;SDS011;6623;52.120;8.660;2022-07-06T04:50:29;3.40;;;1.30;;
13114;SDS011;6623;52.120;8.660;2022-07-06T04:52:58;4.30;;;1.27;;
13114;SDS011;6623;52.120;8.660;2022-07-06T04:55:24;2.17;;;1.20;;
13114;SDS011;6623;52.120;8.660;2022-07-06T04:57:50;6.73;;;1.40;;
13114;SDS011;6623;52.120;8.660;2022-07-06T05:00:19;4.63;;;1.20;;
13114;SDS011;6623;52.120;8.660;2022-07-06T05:02:49;5.77;;;1.40;;
13114;SDS011;6623;52.120;8.660;2022-07-06T05:05:15;2.10;;;0.90;;
13114;SDS011;6623;52.120;8.660;2022-07-06T05:07:47;3.97;;;1.40;;
13114;SDS011;6623;52.120;8.660;2022-07-06T05:10:16;6.23;;;1.27;;
13114;SDS011;6623;52.120;8.660;2022-07-06T05:12:48;7.17;;;1.33;;
13114;SDS011;6623;52.120;8.660;2022-07-06T05:15:14;5.37;;;1.97;;
13114;SDS011;6623;52.120;8.660;2022-07-06T05:17:40;6.40;;;2.30;;
13114;SDS011;6623;52.120;8.660;2022-07-06T05:20:06;4.13;;;1.63;;
13114;SDS011;6623;52.120;8.660;2022-07-06T05:22:32;1.97;;;1.10;;
13114;SDS011;6623;52.120;8.660;2022-07-06T05:25:00;3.40;;;1.40;;
13114;SDS011;6623;52.120;8.660;2022-07-06T05:27:29;3.77;;;1.20;;
13114;SDS011;6623;52.120;8.660;2022-07-06T05:29:55;2.80;;;1.20;;
13114;SDS011;6623;52.120;8.660;2022-07-06T05:32:21;4.30;;;1.20;;
13114;SDS011;6623;52.120;8.660;2022-07-06T05:34:47;5.03;;;1.10;;
13114;SDS011;6623;52.120;8.660;2022-07-06T05:37:15;5.70;;;1.33;;
13114;SDS011;6623;52.120;8.660;2022-07-06T05:39:41;5.13;;;1.10;;
13114;SDS011;6623;52.120;8.660;2022-07-06T05:42:10;1.80;;;1.10;;
13114;SDS011;6623;52.120;8.660;2022-07-06T05:44:36;5.30;;;1.40;;
13114;SDS011;6623;52.120;8.660;2022-07-06T05:47:02;2.77;;;1.10;;
13114;SDS011;6623;52.120;8.660;2022-07-06T05:49:48;3.67;;;1.23;;
13114;SDS011;6623;52.120;8.660;2022-07-06T05:52:32;4.57;;;1.00;;
13114;SDS011;6623;52.120;8.660;2022-07-06T05:54:58;3.77;;;1.27;;
13114;SDS011;6623;52.120;8.660;2022-07-06T05:57:24;2.67;;;1.20;;
13114;SDS011;6623;52.120;8.660;2022-07-06T05:59:51;3.37;;;1.10;;
13114;SDS011;6623;52.120;8.660;2022-07-06T06:02:17;4.07;;;1.27;;
13114;SDS011;6623;52.120;8.660;2022-07-06T06:04:43;3.63;;;1.17;;
13114;SDS011;6623;52.120;8.660;2022-07-06T06:07:09;5.37;;;1.20;;
13114;SDS011;6623;52.120;8.660;2022-07-06T06:09:35;4.97;;;1.10;;
13114;SDS011;6623;52.120;8.660;2022-07-06T06:12:01;3.23;;;1.00;;
13114;SDS011;6623;52.120;8.660;2022-07-06T06:14:27;5.73;;;1.50;;
13114;SDS011;6623;52.120;8.660;2022-07-06T06:16:53;5.70;;;1.50;;
13114;SDS011;6623;52.120;8.660;2022-07-06T06:19:22;4.03;;;1.43;;
13114;SDS011;6623;52.120;8.660;2022-07-06T06:21:50;4.17;;;1.20;;
13114;SDS011;6623;52.120;8.660;2022-07-06T06:24:16;4.07;;;1.20;;
13114;SDS011;6623;52.120;8.660;2022-07-06T06:26:43;3.20;;;1.20;;
13114;SDS011;6623;52.120;8.660;2022-07-06T06:29:09;2.43;;;1.10;;
13114;SDS011;6623;52.120;8.660;2022-07-06T06:31:35;4.70;;;1.10;;
13114;SDS011;6623;52.120;8.660;2022-07-06T06:34:02;1.77;;;1.00;;
13114;SDS011;6623;52.120;8.660;2022-07-06T06:36:28;3.67;;;1.17;;
13114;SDS011;6623;52.120;8.660;2022-07-06T06:38:54;5.93;;;1.60;;
13114;SDS011;6623;52.120;8.660;2022-07-06T06:41:20;2.03;;;1.00;;
13114;SDS011;6623;52.120;8.660;2022-07-06T06:43:46;1.77;;;0.90;;
13114;SDS011;6623;52.120;8.660;2022-07-06T06:46:14;2.67;;;1.00;;
13114;SDS011;6623;52.120;8.660;2022-07-06T06:48:40;3.70;;;1.20;;
13114;SDS011;6623;52.120;8.660;2022-07-06T06:51:06;4.00;;;1.10;;
13114;SDS011;6623;52.120;8.660;2022-07-06T06:53:32;3.07;;;1.00;;
13114;SDS011;6623;52.120;8.660;2022-07-06T06:55:58;5.33;;;1.00;;
13114;SDS011;6623;52.120;8.660;2022-07-06T06:58:24;3.13;;;1.00;;
13114;SDS011;6623;52.120;8.660;2022-07-06T07:00:50;4.77;;;0.97;;
13114;SDS011;6623;52.120;8.660;2022-07-06T07:03:16;2.13;;;1.20;;
13114;SDS011;6623;52.120;8.660;2022-07-06T07:05:42;4.13;;;1.13;;
13114;SDS011;6623;52.120;8.660;2022-07-06T07:08:08;3.00;;;1.10;;
13114;SDS011;6623;52.120;8.660;2022-07-06T07:10:34;4.40;;;0.83;;
13114;SDS011;6623;52.120;8.660;2022-07-06T07:13:00;2.93;;;1.00;;
13114;SDS011;6623;52.120;8.660;2022-07-06T07:15:26;3.73;;;0.80;;
13114;SDS011;6623;52.120;8.660;2022-07-06T07:17:52;2.67;;;0.90;;
13114;SDS011;6623;52.120;8.660;2022-07-06T07:20:18;5.33;;;1.20;;
13114;SDS011;6623;52.120;8.660;2022-07-06T07:22:44;2.00;;;0.70;;
13114;SDS011;6623;52.120;8.660;2022-07-06T07:25:10;6.37;;;1.10;;
13114;SDS011;6623;52.120;8.660;2022-07-06T07:27:36;1.77;;;0.70;;
13114;SDS011;6623;52.120;8.660;2022-07-06T07:30:03;5.80;;;0.90;;
13114;SDS011;6623;52.120;8.660;2022-07-06T07:32:29;14.03;;;1.30;;
13114;SDS011;6623;52.120;8.660;2022-07-06T07:34:55;4.37;;;1.03;;
13114;SDS011;6623;52.120;8.660;2022-07-06T07:37:21;8.93;;;1.20;;
13114;SDS011;6623;52.120;8.660;2022-07-06T07:39:52;2.93;;;0.90;;
13114;SDS011;6623;52.120;8.660;2022-07-06T07:42:18;2.50;;;0.70;;
13114;SDS011;6623;52.120;8.660;2022-07-06T07:44:44;5.03;;;1.10;;
13114;SDS011;6623;52.120;8.660;2022-07-06T07:47:13;3.30;;;1.07;;
13114;SDS011;6623;52.120;8.660;2022-07-06T07:49:39;4.60;;;0.90;;
13114;SDS011;6623;52.120;8.660;2022-07-06T07:52:05;2.73;;;0.70;;
13114;SDS011;6623;52.120;8.660;2022-07-06T07:54:31;5.20;;;0.80;;
13114;SDS011;6623;52.120;8.660;2022-07-06T07:56:57;5.40;;;1.33;;
13114;SDS011;6623;52.120;8.660;2022-07-06T07:59:23;3.80;;;0.83;;
13114;SDS011;6623;52.120;8.660;2022-07-06T08:01:52;2.93;;;0.80;;
13114;SDS011;6623;52.120;8.660;2022-07-06T08:04:18;4.57;;;0.90;;
13114;SDS011;6623;52.120;8.660;2022-07-06T08:06:44;2.10;;;0.80;;
13114;SDS011;6623;52.120;8.660;2022-07-06T08:09:13;2.87;;;0.70;;
13114;SDS011;6623;52.120;8.660;2022-07-06T08:11:40;2.67;;;0.80;;
13114;SDS011;6623;52.120;8.660;2022-07-06T08:14:06;3.60;;;0.70;;
13114;SDS011;6623;52.120;8.660;2022-07-06T08:16:32;5.17;;;0.90;;
13114;SDS011;6623;52.120;8.660;2022-07-06T08:18:58;2.40;;;1.03;;
13114;SDS011;6623;52.120;8.660;2022-07-06T08:21:24;3.67;;;1.10;;
13114;SDS011;6623;52.120;8.660;2022-07-06T08:23:56;3.80;;;0.77;;
13114;SDS011;6623;52.120;8.660;2022-07-06T08:26:28;4.00;;;0.90;;
13114;SDS011;6623;52.120;8.660;2022-07-06T08:28:54;2.83;;;0.70;;
13114;SDS011;6623;52.120;8.660;2022-07-06T08:31:20;2.00;;;0.60;;
13114;SDS011;6623;52.120;8.660;2022-07-06T08:33:46;1.97;;;0.90;;
13114;SDS011;6623;52.120;8.660;2022-07-06T08:36:14;1.10;;;0.60;;
13114;SDS011;6623;52.120;8.660;2022-07-06T08:38:40;3.67;;;0.90;;
13114;SDS011;6623;52.120;8.660;2022-07-06T08:41:13;3.47;;;0.60;;
13114;SDS011;6623;52.120;8.660;2022-07-06T08:43:42;1.97;;;0.50;;
13114;SDS011;6623;52.120;8.660;2022-07-06T08:46:12;0.80;;;0.40;;
13114;SDS011;6623;52.120;8.660;2022-07-06T08:48:41;3.10;;;0.77;;
13114;SDS011;6623;52.120;8.660;2022-07-06T08:51:08;2.73;;;0.80;;
13114;SDS011;6623;52.120;8.660;2022-07-06T08:53:34;2.40;;;1.00;;
13114;SDS011;6623;52.120;8.660;2022-07-06T08:56:00;3.60;;;0.60;;
13114;SDS011;6623;52.120;8.660;2022-07-06T08:58:26;3.63;;;0.80;;
13114;SDS011;6623;52.120;8.660;2022-07-06T09:00:57;1.27;;;0.60;;
13114;SDS011;6623;52.120;8.660;2022-07-06T09:03:23;3.37;;;0.73;;
13114;SDS011;6623;52.120;8.660;2022-07-06T09:05:50;2.33;;;0.70;;
13114;SDS011;6623;52.120;8.660;2022-07-06T09:08:16;2.60;;;0.90;;
13114;SDS011;6623;52.120;8.660;2022-07-06T09:10:43;2.67;;;0.70;;
13114;SDS011;6623;52.120;8.660;2022-07-06T09:13:09;3.67;;;0.60;;
13114;SDS011;6623;52.120;8.660;2022-07-06T09:15:36;1.30;;;0.60;;
13114;SDS011;6623;52.120;8.660;2022-07-06T09:18:05;2.17;;;0.70;;
13114;SDS011;6623;52.120;8.660;2022-07-06T09:20:32;5.83;;;0.70;;
13114;SDS011;6623;52.120;8.660;2022-07-06T09:23:02;2.43;;;0.60;;
13114;SDS011;6623;52.120;8.660;2022-07-06T09:25:29;2.00;;;0.70;;
13114;SDS011;6623;52.120;8.660;2022-07-06T09:27:56;1.70;;;0.37;;
13114;SDS011;6623;52.120;8.660;2022-07-06T09:30:22;1.57;;;0.70;;
13114;SDS011;6623;52.120;8.660;2022-07-06T09:32:52;3.60;;;0.67;;
13114;SDS011;6623;52.120;8.660;2022-07-06T09:35:20;2.57;;;0.57;;
13114;SDS011;6623;52.120;8.660;2022-07-06T09:37:59;2.17;;;0.50;;
13114;SDS011;6623;52.120;8.660;2022-07-06T09:40:25;3.33;;;0.90;;
13114;SDS011;6623;52.120;8.660;2022-07-06T09:42:52;1.77;;;0.80;;
13114;SDS011;6623;52.120;8.660;2022-07-06T09:45:33;3.03;;;0.70;;
13114;SDS011;6623;52.120;8.660;2022-07-06T09:48:05;1.30;;;0.60;;
13114;SDS011;6623;52.120;8.660;2022-07-06T09:50:41;3.40;;;0.53;;
13114;SDS011;6623;52.120;8.660;2022-07-06T09:53:08;2.00;;;0.60;;
13114;SDS011;6623;52.120;8.660;2022-07-06T09:55:34;2.37;;;0.60;;
13114;SDS011;6623;52.120;8.660;2022-07-06T09:58:00;3.93;;;0.80;;
13114;SDS011;6623;52.120;8.660;2022-07-06T10:00:26;4.23;;;0.63;;
13114;SDS011;6623;52.120;8.660;2022-07-06T10:02:52;5.10;;;1.23;;
13114;SDS011;6623;52.120;8.660;2022-07-06T10:05:19;2.93;;;0.70;;
13114;SDS011;6623;52.120;8.660;2022-07-06T10:07:53;2.20;;;1.03;;
13114;SDS011;6623;52.120;8.660;2022-07-06T10:10:20;2.00;;;0.77;;
13114;SDS011;6623;52.120;8.660;2022-07-06T10:12:46;2.10;;;0.70;;
13114;SDS011;6623;52.120;8.660;2022-07-06T10:15:14;2.23;;;0.80;;
13114;SDS011;6623;52.120;8.660;2022-07-06T10:17:40;4.67;;;0.90;;
13114;SDS011;6623;52.120;8.660;2022-07-06T10:20:07;6.20;;;1.00;;
13114;SDS011;6623;52.120;8.660;2022-07-06T10:22:34;2.50;;;0.50;;
13114;SDS011;6623;52.120;8.660;2022-07-06T10:25:00;2.07;;;0.67;;
13114;SDS011;6623;52.120;8.660;2022-07-06T10:27:28;3.30;;;0.77;;
13114;SDS011;6623;52.120;8.660;2022-07-06T10:29:54;5.17;;;0.80;;
13114;SDS011;6623;52.120;8.660;2022-07-06T10:32:22;5.17;;;0.90;;
13114;SDS011;6623;52.120;8.660;2022-07-06T10:34:49;5.13;;;0.70;;
13114;SDS011;6623;52.120;8.660;2022-07-06T10:37:23;0.87;;;0.60;;
13114;SDS011;6623;52.120;8.660;2022-07-06T10:39:49;2.07;;;0.63;;
13114;SDS011;6623;52.120;8.660;2022-07-06T10:42:44;1.97;;;0.50;;
13114;SDS011;6623;52.120;8.660;2022-07-06T10:45:11;4.03;;;1.10;;
13114;SDS011;6623;52.120;8.660;2022-07-06T10:47:39;3.63;;;1.00;;
13114;SDS011;6623;52.120;8.660;2022-07-06T10:50:06;2.73;;;0.70;;
13114;SDS011;6623;52.120;8.660;2022-07-06T10:55:34;4.93;;;0.60;;
13114;SDS011;6623;52.120;8.660;2022-07-06T10:58:03;3.93;;;0.70;;
13114;SDS011;6623;52.120;8.660;2022-07-06T11:00:52;3.47;;;0.60;;
13114;SDS011;6623;52.120;8.660;2022-07-06T11:03:37;1.93;;;0.57;;
13114;SDS011;6623;52.120;8.660;2022-07-06T11:06:20;1.13;;;0.57;;
13114;SDS011;6623;52.120;8.660;2022-07-06T11:11:40;3.03;;;0.50;;
13114;SDS011;6623;52.120;8.660;2022-07-06T11:14:11;2.60;;;1.00;;
13114;SDS011;6623;52.120;8.660;2022-07-06T11:19:08;1.70;;;0.70;;
13114;SDS011;6623;52.120;8.660;2022-07-06T11:24:04;3.23;;;0.60;;
13114;SDS011;6623;52.120;8.660;2022-07-06T11:26:31;3.30;;;0.80;;
13114;SDS011;6623;52.120;8.660;2022-07-06T11:28:58;3.00;;;0.80;;
13114;SDS011;6623;52.120;8.660;2022-07-06T11:31:25;3.30;;;0.50;;
13114;SDS011;6623;52.120;8.660;2022-07-06T11:33:51;4.97;;;0.70;;
13114;SDS011;6623;52.120;8.660;2022-07-06T11:36:19;1.33;;;0.50;;
13114;SDS011;6623;52.120;8.660;2022-07-06T11:38:45;1.17;;;0.50;;
13114;SDS011;6623;52.120;8.660;2022-07-06T11:41:12;2.80;;;0.70;;
13114;SDS011;6623;52.120;8.660;2022-07-06T11:43:42;1.77;;;0.60;;
13114;SDS011;6623;52.120;8.660;2022-07-06T11:46:22;2.33;;;0.93;;
13114;SDS011;6623;52.120;8.660;2022-07-06T11:48:54;1.43;;;0.60;;
13114;SDS011;6623;52.120;8.660;2022-07-06T11:51:21;3.87;;;0.60;;
13114;SDS011;6623;52.120;8.660;2022-07-06T11:53:57;2.50;;;0.50;;
13114;SDS011;6623;52.120;8.660;2022-07-06T11:56:26;5.57;;;0.80;;
13114;SDS011;6623;52.120;8.660;2022-07-06T11:58:54;7.40;;;0.83;;
13114;SDS011;6623;52.120;8.660;2022-07-06T12:01:20;1.10;;;0.53;;
13114;SDS011;6623;52.120;8.660;2022-07-06T12:03:48;1.00;;;0.50;;
13114;SDS011;6623;52.120;8.660;2022-07-06T12:06:15;2.93;;;0.73;;
13114;SDS011;6623;52.120;8.660;2022-07-06T12:08:42;0.93;;;0.57;;
13114;SDS011;6623;52.120;8.660;2022-07-06T12:11:08;1.23;;;0.50;;
13114;SDS011;6623;52.120;8.660;2022-07-06T12:13:38;1.67;;;0.40;;
13114;SDS011;6623;52.120;8.660;2022-07-06T12:16:13;2.63;;;1.00;;
13114;SDS011;6623;52.120;8.660;2022-07-06T12:18:43;2.33;;;0.73;;
13114;SDS011;6623;52.120;8.660;2022-07-06T12:21:10;3.90;;;0.93;;
13114;SDS011;6623;52.120;8.660;2022-07-06T12:23:42;2.17;;;0.80;;
13114;SDS011;6623;52.120;8.660;2022-07-06T12:26:08;3.83;;;0.60;;
13114;SDS011;6623;52.120;8.660;2022-07-06T12:28:35;2.87;;;0.70;;
13114;SDS011;6623;52.120;8.660;2022-07-06T12:31:01;2.20;;;0.80;;
13114;SDS011;6623;52.120;8.660;2022-07-06T12:33:27;3.17;;;0.60;;
13114;SDS011;6623;52.120;8.660;2022-07-06T12:35:53;1.73;;;0.50;;
13114;SDS011;6623;52.120;8.660;2022-07-06T12:38:25;3.83;;;0.53;;
13114;SDS011;6623;52.120;8.660;2022-07-06T12:40:51;2.87;;;0.60;;
13114;SDS011;6623;52.120;8.660;2022-07-06T12:43:34;3.43;;;0.60;;
13114;SDS011;6623;52.120;8.660;2022-07-06T12:46:22;5.23;;;0.70;;
13114;SDS011;6623;52.120;8.660;2022-07-06T12:48:55;2.03;;;0.67;;
13114;SDS011;6623;52.120;8.660;2022-07-06T12:51:21;1.70;;;0.70;;
13114;SDS011;6623;52.120;8.660;2022-07-06T12:53:47;2.27;;;0.60;;
13114;SDS011;6623;52.120;8.660;2022-07-06T12:56:16;2.03;;;0.63;;
13114;SDS011;6623;52.120;8.660;2022-07-06T12:59:01;1.37;;;0.60;;
13114;SDS011;6623;52.120;8.660;2022-07-06T13:01:27;2.47;;;0.60;;
13114;SDS011;6623;52.120;8.660;2022-07-06T13:03:53;1.37;;;0.70;;
13114;SDS011;6623;52.120;8.660;2022-07-06T13:06:28;2.20;;;0.43;;
13114;SDS011;6623;52.120;8.660;2022-07-06T13:08:57;2.40;;;0.60;;
13114;SDS011;6623;52.120;8.660;2022-07-06T13:11:26;2.43;;;0.50;;
13114;SDS011;6623;52.120;8.660;2022-07-06T13:13:52;2.13;;;0.60;;
13114;SDS011;6623;52.120;8.660;2022-07-06T13:16:18;0.77;;;0.40;;
13114;SDS011;6623;52.120;8.660;2022-07-06T13:18:44;2.50;;;0.50;;
13114;SDS011;6623;52.120;8.660;2022-07-06T13:21:10;1.53;;;0.60;;
13114;SDS011;6623;52.120;8.660;2022-07-06T13:23:36;3.90;;;0.63;;
13114;SDS011;6623;52.120;8.660;2022-07-06T13:26:02;1.13;;;0.40;;
13114;SDS011;6623;52.120;8.660;2022-07-06T13:28:28;3.13;;;0.70;;
13114;SDS011;6623;52.120;8.660;2022-07-06T13:30:54;1.73;;;0.43;;
13114;SDS011;6623;52.120;8.660;2022-07-06T13:33:20;3.83;;;0.60;;
13114;SDS011;6623;52.120;8.660;2022-07-06T13:35:49;4.20;;;0.77;;
13114;SDS011;6623;52.120;8.660;2022-07-06T13:38:15;2.13;;;0.53;;
13114;SDS011;6623;52.120;8.660;2022-07-06T13:40:41;2.07;;;0.43;;
13114;SDS011;6623;52.120;8.660;2022-07-06T13:43:07;0.97;;;0.40;;
13114;SDS011;6623;52.120;8.660;2022-07-06T13:45:33;2.10;;;0.50;;
13114;SDS011;6623;52.120;8.660;2022-07-06T13:47:59;0.97;;;0.60;;
13114;SDS011;6623;52.120;8.660;2022-07-06T13:50:24;0.73;;;0.40;;
13114;SDS011;6623;52.120;8.660;2022-07-06T13:52:54;3.03;;;0.80;;
13114;SDS011;6623;52.120;8.660;2022-07-06T13:55:20;1.87;;;0.40;;
13114;SDS011;6623;52.120;8.660;2022-07-06T13:57:46;1.30;;;0.77;;
13114;SDS011;6623;52.120;8.660;2022-07-06T14:00:13;1.30;;;0.40;;
13114;SDS011;6623;52.120;8.660;2022-07-06T14:02:39;1.03;;;0.40;;
13114;SDS011;6623;52.120;8.660;2022-07-06T14:05:05;2.43;;;0.50;;
13114;SDS011;6623;52.120;8.660;2022-07-06T14:07:31;1.87;;;0.40;;
13114;SDS011;6623;52.120;8.660;2022-07-06T14:09:58;2.30;;;0.53;;
13114;SDS011;6623;52.120;8.660;2022-07-06T14:12:26;1.57;;;0.40;;
13114;SDS011;6623;52.120;8.660;2022-07-06T14:14:52;1.03;;;0.40;;
13114;SDS011;6623;52.120;8.660;2022-07-06T14:17:21;1.20;;;0.57;;
13114;SDS011;6623;52.120;8.660;2022-07-06T14:19:48;0.43;;;0.30;;
13114;SDS011;6623;52.120;8.660;2022-07-06T14:22:14;1.33;;;0.40;;
13114;SDS011;6623;52.120;8.660;2022-07-06T14:24:40;1.37;;;0.50;;
13114;SDS011;6623;52.120;8.660;2022-07-06T14:27:09;0.83;;;0.40;;
13114;SDS011;6623;52.120;8.660;2022-07-06T14:29:37;4.43;;;0.70;;
13114;SDS011;6623;52.120;8.660;2022-07-06T14:32:04;1.03;;;0.43;;
13114;SDS011;6623;52.120;8.660;2022-07-06T14:34:35;2.07;;;0.50;;
13114;SDS011;6623;52.120;8.660;2022-07-06T14:37:01;2.17;;;0.30;;
13114;SDS011;6623;52.120;8.660;2022-07-06T14:39:27;1.37;;;0.40;;
13114;SDS011;6623;52.120;8.660;2022-07-06T14:41:56;1.03;;;0.40;;
13114;SDS011;6623;52.120;8.660;2022-07-06T14:44:26;4.53;;;0.40;;
13114;SDS011;6623;52.120;8.660;2022-07-06T14:46:55;3.20;;;0.60;;
13114;SDS011;6623;52.120;8.660;2022-07-06T14:49:24;0.77;;;0.37;;
13114;SDS011;6623;52.120;8.660;2022-07-06T14:51:50;0.83;;;0.50;;
13114;SDS011;6623;52.120;8.660;2022-07-06T14:54:18;1.03;;;0.30;;
13114;SDS011;6623;52.120;8.660;2022-07-06T14:56:44;2.57;;;0.57;;
13114;SDS011;6623;52.120;8.660;2022-07-06T14:59:15;1.90;;;0.40;;
13114;SDS011;6623;52.120;8.660;2022-07-06T15:01:41;0.47;;;0.30;;
13114;SDS011;6623;52.120;8.660;2022-07-06T15:04:08;0.80;;;0.43;;
13114;SDS011;6623;52.120;8.660;2022-07-06T15:06:37;1.77;;;0.60;;
13114;SDS011;6623;52.120;8.660;2022-07-06T15:09:03;2.10;;;0.50;;
13114;SDS011;6623;52.120;8.660;2022-07-06T15:11:33;0.50;;;0.30;;
13114;SDS011;6623;52.120;8.660;2022-07-06T15:13:59;1.07;;;0.40;;